Time;durP1;ratioP1;P1;durP2;ratioP2;P2;SDS_P1;SDS_P2;PMS_P1;PMS_P2;Temp;Humidity;BMP_temperature;BMP_pressure;BME280_temperature;BME280_humidity;BME280_pressure;Samples;Min_cycle;Max_cycle;Signal;HPM_P1;HPM_P2
2022/03/27 00:00:31;;;;;;;;;;;;;;;;;;5091444;28;19920;-78
2022/03/27 00:02:56;;;;;;;;;;;;;;;;;;5080792;28;19952;-79
2022/03/27 00:05:22;;;;;;;;;;;;;;;;;;5088270;28;20006;-78
2022/03/27 00:07:47;;;;;;;;;;;;;;;;;;5086783;28;19966;-77
2022/03/27 00:10:13;;;;;;;;;;;;;;;;;;5073707;28;19916;-77
2022/03/27 00:12:38;;;;;;;;;;;;;;;;;;5058291;28;19922;-78
2022/03/27 00:15:04;;;;;;;;;;;;;;;;;;5067575;28;19993;-77
2022/03/27 00:17:32;;;;;;;;;;;;;;;;;;5074878;28;19933;-78
2022/03/27 00:19:58;;;;;;;;;;;;;;;;;;5075093;28;19962;-77
2022/03/27 00:22:24;;;;;;;;;;;;;;;;;;5075137;28;19979;-79
2022/03/27 00:24:49;;;;;;;;;;;;;;;;;;5074807;28;19931;-79
2022/03/27 00:27:15;;;;;;;;;;;;;;;;;;5056840;28;19967;-79
2022/03/27 00:29:40;;;;;;;;;;;;;;;;;;5075024;28;19920;-79
2022/03/27 00:32:06;;;;;;;;;;;;;;;;;;5074726;28;19928;-78
2022/03/27 00:34:32;;;;;;;;;;;;;;;;;;5075581;28;19924;-77
2022/03/27 00:36:57;;;;;;;;;;;;;;;;;;5075475;28;19920;-79
2022/03/27 00:39:23;;;;;;;;;;;;;;;;;;5075503;28;19935;-79
2022/03/27 00:41:49;;;;;;;;;;;;;;;;;;5076203;28;19916;-77
2022/03/27 00:44:15;;;;;;;;;;;;;;;;;;5075599;28;19920;-77
2022/03/27 00:46:41;;;;;;;;;;;;;;;;;;5075568;28;19916;-77
2022/03/27 00:49:06;;;;;;;;;;;;;;;;;;5079617;28;19916;-77
2022/03/27 00:51:32;;;;;;;;;;;;;;;;;;5057758;28;19920;-78
2022/03/27 00:53:57;;;;;;;;;;;;;;;;;;5075464;28;19921;-78
2022/03/27 00:56:23;;;;;;;;;;;;;;;;;;5075462;28;19980;-77
2022/03/27 00:58:48;;;;;;;;;;;;;;;;;;5075326;28;19921;-77
2022/03/27 01:01:16;;;;;;;;;;;;;;;;;;5075158;28;19927;-77
2022/03/27 01:03:41;;;;;;;;;;;;;;;;;;5075208;28;19920;-80
2022/03/27 01:06:17;;;;;;;;;;;;;;;;;;5075390;28;19974;-77
2022/03/27 01:11:27;;;;;;;;;;;;;;;;;;5075414;28;19963;-77
2022/03/27 01:13:54;;;;;;;;;;;;;;;;;;5075144;28;20292;-77
2022/03/27 01:16:38;;;;;;;;;;;;;;;;;;5075047;28;19916;-77
2022/03/27 01:19:04;;;;;;;;;;;;;;;;;;5075049;28;20265;-78
2022/03/27 01:21:30;;;;;;;;;;;;;;;;;;5074810;28;19923;-77
2022/03/27 01:23:55;;;;;;;;;;;;;;;;;;5074953;28;19955;-77
2022/03/27 01:26:22;;;;;;;;;;;;;;;;;;5056880;28;19917;-77
2022/03/27 01:28:47;;;;;;;;;;;;;;;;;;5074827;28;20368;-76
2022/03/27 01:31:13;;;;;;;;;;;;;;;;;;5074791;28;19923;-76
2022/03/27 01:33:38;;;;;;;;;;;;;;;;;;5074678;28;19917;-78
2022/03/27 01:36:04;;;;;;;;;;;;;;;;;;5074659;28;20391;-79
2022/03/27 01:38:29;;;;;;;;;;;;;;;;;;5073980;28;19924;-77
2022/03/27 01:40:55;;;;;;;;;;;;;;;;;;5074690;28;20011;-78
2022/03/27 01:43:20;;;;;;;;;;;;;;;;;;5073759;28;19923;-77
2022/03/27 01:45:45;;;;;;;;;;;;;;;;;;5056462;28;19946;-79
2022/03/27 01:48:11;;;;;;;;;;;;;;;;;;5074493;28;19962;-78
2022/03/27 01:50:36;;;;;;;;;;;;;;;;;;5074262;28;19917;-79
2022/03/27 01:53:02;;;;;;;;;;;;;;;;;;5074250;28;19962;-78
2022/03/27 01:55:28;;;;;;;;;;;;;;;;;;5074186;28;20371;-76
2022/03/27 01:57:53;;;;;;;;;;;;;;;;;;5074107;28;19916;-76
2022/03/27 02:00:19;;;;;;;;;;;;;;;;;;5055977;28;19921;-78
2022/03/27 02:02:45;;;;;;;;;;;;;;;;;;5074078;28;19963;-77
2022/03/27 02:05:11;;;;;;;;;;;;;;;;;;5074292;28;19967;-77
2022/03/27 02:07:38;;;;;;;;;;;;;;;;;;5073897;28;19966;-78
2022/03/27 02:10:04;;;;;;;;;;;;;;;;;;5073861;28;19940;-78
2022/03/27 02:12:34;;;;;;;;;;;;;;;;;;5073911;28;19917;-78
2022/03/27 02:14:59;;;;;;;;;;;;;;;;;;5074129;28;20363;-77
2022/03/27 02:17:25;;;;;;;;;;;;;;;;;;5073621;28;19925;-77
2022/03/27 02:19:51;;;;;;;;;;;;;;;;;;5073914;28;20021;-77
2022/03/27 02:22:16;;;;;;;;;;;;;;;;;;5073755;28;20006;-77
2022/03/27 02:24:41;;;;;;;;;;;;;;;;;;5055906;28;19923;-76
2022/03/27 02:27:07;;;;;;;;;;;;;;;;;;5073623;28;19955;-77
2022/03/27 02:29:32;;;;;;;;;;;;;;;;;;5073467;28;19924;-77
2022/03/27 02:31:58;;;;;;;;;;;;;;;;;;5073688;28;19927;-77
2022/03/27 02:34:23;;;;;;;;;;;;;;;;;;5072778;28;20356;-79
2022/03/27 02:36:49;;;;;;;;;;;;;;;;;;5073484;28;20003;-78
2022/03/27 02:39:14;;;;;;;;;;;;;;;;;;5073540;28;19924;-78
2022/03/27 02:41:40;;;;;;;;;;;;;;;;;;5073451;28;19991;-78
2022/03/27 02:44:05;;;;;;;;;;;;;;;;;;5073334;28;20331;-78
2022/03/27 02:46:30;;;;;;;;;;;;;;;;;;5073691;28;19916;-76
2022/03/27 02:48:56;;;;;;;;;;;;;;;;;;5073349;28;19916;-77
2022/03/27 02:51:21;;;;;;;;;;;;;;;;;;5073363;28;19921;-77
2022/03/27 02:53:47;;;;;;;;;;;;;;;;;;5073394;28;19923;-77
2022/03/27 02:56:12;;;;;;;;;;;;;;;;;;5055349;28;19916;-76
2022/03/27 02:58:38;;;;;;;;;;;;;;;;;;5073339;28;20043;-77
2022/03/27 03:01:04;;;;;;;;;;;;;;;;;;5072984;28;20014;-83
2022/03/27 03:03:29;;;;;;;;;;;;;;;;;;5073114;28;19962;-78
2022/03/27 03:05:54;;;;;;;;;;;;;;;;;;5073254;28;19924;-77
2022/03/27 03:08:20;;;;;;;;;;;;;;;;;;5055251;28;19920;-78
2022/03/27 03:10:45;;;;;;;;;;;;;;;;;;5073176;28;19926;-77
2022/03/27 03:13:11;;;;;;;;;;;;;;;;;;5073166;28;19920;-78
2022/03/27 03:15:38;;;;;;;;;;;;;;;;;;5073057;28;19989;-77
2022/03/27 03:18:04;;;;;;;;;;;;;;;;;;5073175;28;19916;-77
2022/03/27 03:20:29;;;;;;;;;;;;;;;;;;5073122;28;19916;-79
2022/03/27 03:22:55;;;;;;;;;;;;;;;;;;5073196;28;20510;-76
2022/03/27 03:25:20;;;;;;;;;;;;;;;;;;5072946;28;19948;-76
2022/03/27 03:27:46;;;;;;;;;;;;;;;;;;5073133;28;19969;-76
2022/03/27 03:30:12;;;;;;;;;;;;;;;;;;5072928;28;19962;-78
2022/03/27 03:32:37;;;;;;;;;;;;;;;;;;5072943;28;19964;-79
2022/03/27 03:35:06;;;;;;;;;;;;;;;;;;5053968;28;19924;-82
2022/03/27 03:37:31;;;;;;;;;;;;;;;;;;5070169;28;20012;-77
2022/03/27 03:39:56;;;;;;;;;;;;;;;;;;5072772;28;20378;-77
2022/03/27 03:42:22;;;;;;;;;;;;;;;;;;5072908;28;19923;-76
2022/03/27 03:44:47;;;;;;;;;;;;;;;;;;5054937;28;19920;-77
2022/03/27 03:47:13;;;;;;;;;;;;;;;;;;5054823;28;19959;-81
2022/03/27 03:49:39;;;;;;;;;;;;;;;;;;5072606;28;20360;-78
2022/03/27 03:52:04;;;;;;;;;;;;;;;;;;5072757;28;19966;-77
2022/03/27 03:54:30;;;;;;;;;;;;;;;;;;5072769;28;20478;-78
2022/03/27 03:56:55;;;;;;;;;;;;;;;;;;5072761;28;20435;-77
2022/03/27 03:59:21;;;;;;;;;;;;;;;;;;5072635;28;19970;-77
2022/03/27 04:01:46;;;;;;;;;;;;;;;;;;5072356;28;20334;-76
2022/03/27 04:04:12;;;;;;;;;;;;;;;;;;5072679;28;19986;-79
2022/03/27 04:06:37;;;;;;;;;;;;;;;;;;5073535;28;20319;-78
2022/03/27 04:09:02;;;;;;;;;;;;;;;;;;5076194;28;19958;-78
2022/03/27 04:11:28;;;;;;;;;;;;;;;;;;5076313;28;19959;-78
2022/03/27 04:13:53;;;;;;;;;;;;;;;;;;5076259;28;19919;-78
2022/03/27 04:16:19;;;;;;;;;;;;;;;;;;5076230;28;20438;-78
2022/03/27 04:18:44;;;;;;;;;;;;;;;;;;5076454;28;19923;-79
2022/03/27 04:21:10;;;;;;;;;;;;;;;;;;5076786;28;20304;-80
2022/03/27 04:23:36;;;;;;;;;;;;;;;;;;5076602;28;19920;-77
2022/03/27 04:26:03;;;;;;;;;;;;;;;;;;5078248;28;20329;-78
2022/03/27 04:28:29;;;;;;;;;;;;;;;;;;5084779;28;19988;-79
2022/03/27 04:30:54;;;;;;;;;;;;;;;;;;5079713;28;19951;-76
2022/03/27 04:33:19;;;;;;;;;;;;;;;;;;5043440;28;19920;-77
2022/03/27 04:35:46;;;;;;;;;;;;;;;;;;5080303;28;19923;-77
2022/03/27 04:38:13;;;;;;;;;;;;;;;;;;5077483;28;19963;-77
2022/03/27 04:40:39;;;;;;;;;;;;;;;;;;5076298;28;19959;-77
2022/03/27 04:43:05;;;;;;;;;;;;;;;;;;5057803;28;19955;-79
2022/03/27 04:45:31;;;;;;;;;;;;;;;;;;5057689;28;20417;-76
2022/03/27 04:47:57;;;;;;;;;;;;;;;;;;5075662;28;19921;-80
2022/03/27 04:50:23;;;;;;;;;;;;;;;;;;5075622;28;19921;-80
2022/03/27 04:52:48;;;;;;;;;;;;;;;;;;5075574;28;19966;-78
2022/03/27 04:55:13;;;;;;;;;;;;;;;;;;5075591;28;19916;-79
2022/03/27 04:57:39;;;;;;;;;;;;;;;;;;5075473;28;19917;-79
2022/03/27 05:00:12;;;;;;;;;;;;;;;;;;5075396;28;19927;-78
2022/03/27 05:02:38;;;;;;;;;;;;;;;;;;5075451;28;19960;-78
2022/03/27 05:05:04;;;;;;;;;;;;;;;;;;5075361;28;20015;-78
2022/03/27 05:07:30;;;;;;;;;;;;;;;;;;5075312;28;20007;-78
2022/03/27 05:09:55;;;;;;;;;;;;;;;;;;5075262;28;20012;-79
2022/03/27 05:12:20;;;;;;;;;;;;;;;;;;5075353;28;20283;-79
2022/03/27 05:14:46;;;;;;;;;;;;;;;;;;5075425;28;19912;-78
2022/03/27 05:17:11;;;;;;;;;;;;;;;;;;5075204;28;19999;-75
2022/03/27 05:19:37;;;;;;;;;;;;;;;;;;5074039;28;19919;-77
2022/03/27 05:22:02;;;;;;;;;;;;;;;;;;5057053;28;19970;-76
2022/03/27 05:24:28;;;;;;;;;;;;;;;;;;5074413;28;19952;-78
2022/03/27 05:26:54;;;;;;;;;;;;;;;;;;5075435;28;19912;-80
2022/03/27 05:29:19;;;;;;;;;;;;;;;;;;5075080;28;19923;-77
2022/03/27 05:31:45;;;;;;;;;;;;;;;;;;5076327;28;20289;-76
2022/03/27 05:34:10;;;;;;;;;;;;;;;;;;5076648;28;19916;-77
2022/03/27 05:36:36;;;;;;;;;;;;;;;;;;5077157;28;19950;-77
2022/03/27 05:39:01;;;;;;;;;;;;;;;;;;5076319;28;19934;-76
2022/03/27 05:41:27;;;;;;;;;;;;;;;;;;5074578;28;19916;-76
2022/03/27 05:43:52;;;;;;;;;;;;;;;;;;5074525;28;20011;-77
2022/03/27 05:46:18;;;;;;;;;;;;;;;;;;5056086;28;19916;-76
2022/03/27 05:48:44;;;;;;;;;;;;;;;;;;5074392;28;20014;-77
2022/03/27 05:51:09;;;;;;;;;;;;;;;;;;5074457;28;20011;-78
2022/03/27 05:53:37;;;;;;;;;;;;;;;;;;5073518;28;20209;-76
2022/03/27 05:56:03;;;;;;;;;;;;;;;;;;5074266;28;20019;-77
2022/03/27 05:58:28;;;;;;;;;;;;;;;;;;5074311;28;19924;-76
2022/03/27 06:00:54;;;;;;;;;;;;;;;;;;5073999;28;19920;-78
2022/03/27 06:03:20;;;;;;;;;;;;;;;;;;5074209;28;19920;-76
2022/03/27 06:05:45;;;;;;;;;;;;;;;;;;5074006;28;20388;-76
2022/03/27 06:08:11;;;;;;;;;;;;;;;;;;5074132;28;19958;-79
2022/03/27 06:10:38;;;;;;;;;;;;;;;;;;5052367;28;19916;-78
2022/03/27 06:13:04;;;;;;;;;;;;;;;;;;5071179;28;19956;-77
2022/03/27 06:15:30;;;;;;;;;;;;;;;;;;5074056;28;19960;-78
2022/03/27 06:17:56;;;;;;;;;;;;;;;;;;5067002;28;19917;-79
2022/03/27 06:20:30;;;;;;;;;;;;;;;;;;5064019;28;19925;-78
2022/03/27 06:22:56;;;;;;;;;;;;;;;;;;5072386;28;20443;-78
2022/03/27 06:25:23;;;;;;;;;;;;;;;;;;5070084;28;19921;-78
2022/03/27 06:27:49;;;;;;;;;;;;;;;;;;5055392;28;19921;-80
2022/03/27 06:30:18;;;;;;;;;;;;;;;;;;5053523;28;19928;-78
2022/03/27 06:32:44;;;;;;;;;;;;;;;;;;5065809;28;19917;-78
2022/03/27 06:35:11;;;;;;;;;;;;;;;;;;5073720;28;19916;-80
2022/03/27 06:37:37;;;;;;;;;;;;;;;;;;5074048;28;20279;-76
2022/03/27 06:40:03;;;;;;;;;;;;;;;;;;5055887;28;20028;-77
2022/03/27 06:42:29;;;;;;;;;;;;;;;;;;5073288;28;20380;-81
2022/03/27 06:44:55;;;;;;;;;;;;;;;;;;5066902;28;19924;-80
2022/03/27 06:47:22;;;;;;;;;;;;;;;;;;5070385;28;19923;-77
2022/03/27 06:49:48;;;;;;;;;;;;;;;;;;5071407;28;19943;-79
2022/03/27 06:52:14;;;;;;;;;;;;;;;;;;5063410;28;20392;-77
2022/03/27 06:54:40;;;;;;;;;;;;;;;;;;5061726;28;19959;-79
2022/03/27 06:57:05;;;;;;;;;;;;;;;;;;5072179;28;19975;-79
2022/03/27 07:04:59;;;;;;;;;;;;;;;;;;5072915;28;19935;-77
2022/03/27 07:07:25;;;;;;;;;;;;;;;;;;5073116;28;20022;-78
2022/03/27 07:09:50;;;;;;;;;;;;;;;;;;5073045;28;19916;-77
2022/03/27 07:12:16;;;;;;;;;;;;;;;;;;5073219;28;20054;-78
2022/03/27 07:14:41;;;;;;;;;;;;;;;;;;5055209;28;20368;-77
2022/03/27 07:17:07;;;;;;;;;;;;;;;;;;5073137;28;20363;-77
2022/03/27 07:19:34;;;;;;;;;;;;;;;;;;5054927;28;20388;-78
2022/03/27 07:21:59;;;;;;;;;;;;;;;;;;5072987;28;19920;-77
2022/03/27 07:24:25;;;;;;;;;;;;;;;;;;5064915;28;19924;-78
2022/03/27 07:26:50;;;;;;;;;;;;;;;;;;5072874;28;19920;-77
2022/03/27 07:29:16;;;;;;;;;;;;;;;;;;5072725;28;19916;-77
2022/03/27 07:31:42;;;;;;;;;;;;;;;;;;5072980;28;19927;-79
2022/03/27 07:34:07;;;;;;;;;;;;;;;;;;5072162;28;19917;-78
2022/03/27 07:36:34;;;;;;;;;;;;;;;;;;5072836;28;19920;-79
2022/03/27 07:38:59;;;;;;;;;;;;;;;;;;5073088;28;20371;-77
2022/03/27 07:41:25;;;;;;;;;;;;;;;;;;5073369;28;19968;-78
2022/03/27 07:43:50;;;;;;;;;;;;;;;;;;5076690;28;19963;-77
2022/03/27 07:46:16;;;;;;;;;;;;;;;;;;5076782;28;19912;-78
2022/03/27 07:48:41;;;;;;;;;;;;;;;;;;5076624;28;19924;-78
2022/03/27 07:51:08;;;;;;;;;;;;;;;;;;5076660;28;19961;-80
2022/03/27 07:53:33;;;;;;;;;;;;;;;;;;5076548;28;19917;-79
2022/03/27 07:55:59;;;;;;;;;;;;;;;;;;5076532;28;20028;-79
2022/03/27 07:58:24;;;;;;;;;;;;;;;;;;5075651;28;19924;-78
2022/03/27 08:00:50;;;;;;;;;;;;;;;;;;5076315;28;19932;-78
2022/03/27 08:03:15;;;;;;;;;;;;;;;;;;5076540;28;20292;-81
2022/03/27 08:05:42;;;;;;;;;;;;;;;;;;5076309;28;19916;-77
2022/03/27 08:08:08;;;;;;;;;;;;;;;;;;5076370;28;20434;-79
2022/03/27 08:10:33;;;;;;;;;;;;;;;;;;5076458;28;19916;-78
2022/03/27 08:12:59;;;;;;;;;;;;;;;;;;5076273;28;20372;-80
2022/03/27 08:15:25;;;;;;;;;;;;;;;;;;5076166;28;19985;-79
2022/03/27 08:17:54;;;;;;;;;;;;;;;;;;5076078;28;20632;-79
2022/03/27 08:20:21;;;;;;;;;;;;;;;;;;5075124;28;19928;-79
2022/03/27 08:22:47;;;;;;;;;;;;;;;;;;5076159;28;20038;-79
2022/03/27 08:26:55;;;;;;;;;;;;;;;;;;5071128;28;19944;-80
2022/03/27 08:27:57;;;;;;;;;;;;;;;;;;5074450;28;19920;-78
2022/03/27 08:30:23;;;;;;;;;;;;;;;;;;5075203;28;20265;-78
2022/03/27 08:32:48;;;;;;;;;;;;;;;;;;5075534;28;20280;-80
2022/03/27 08:35:14;;;;;;;;;;;;;;;;;;5074879;28;20323;-79
2022/03/27 08:37:40;;;;;;;;;;;;;;;;;;5075229;28;19924;-76
2022/03/27 08:40:05;;;;;;;;;;;;;;;;;;5075378;28;20019;-78
2022/03/27 08:42:31;;;;;;;;;;;;;;;;;;5075451;28;19999;-79
2022/03/27 08:44:57;;;;;;;;;;;;;;;;;;5058149;28;19922;-79
2022/03/27 08:47:24;;;;;;;;;;;;;;;;;;5076700;28;19924;-78
2022/03/27 08:50:00;;;;;;;;;;;;;;;;;;5058389;28;19923;-79
2022/03/27 08:52:55;;;;;;;;;;;;;;;;;;5075558;28;19924;-78
2022/03/27 08:55:34;;;;;;;;;;;;;;;;;;5056904;28;20679;-78
2022/03/27 08:58:03;;;;;;;;;;;;;;;;;;5085411;28;19950;-79
2022/03/27 09:00:30;;;;;;;;;;;;;;;;;;5087636;28;19924;-79
2022/03/27 09:02:56;;;;;;;;;;;;;;;;;;5080184;28;19920;-78
2022/03/27 09:05:23;;;;;;;;;;;;;;;;;;5076062;28;19921;-79
2022/03/27 09:07:49;;;;;;;;;;;;;;;;;;5075283;28;20368;-78
2022/03/27 09:10:15;;;;;;;;;;;;;;;;;;5075214;28;19920;-79
2022/03/27 09:12:41;;;;;;;;;;;;;;;;;;5075564;28;19924;-79
2022/03/27 09:15:08;;;;;;;;;;;;;;;;;;5075609;28;19923;-78
2022/03/27 09:17:54;;;;;;;;;;;;;;;;;;5075281;28;19923;-79
2022/03/27 09:20:32;;;;;;;;;;;;;;;;;;5064622;28;19917;-78
2022/03/27 09:23:14;;;;;;;;;;;;;;;;;;5075153;28;19916;-78
2022/03/27 09:25:47;;;;;;;;;;;;;;;;;;5074980;28;19932;-79
2022/03/27 09:28:21;;;;;;;;;;;;;;;;;;5075882;28;20385;-78
2022/03/27 09:30:46;;;;;;;;;;;;;;;;;;5057173;28;19980;-79
2022/03/27 09:33:12;;;;;;;;;;;;;;;;;;5074617;28;20020;-78
2022/03/27 09:35:37;;;;;;;;;;;;;;;;;;5057346;28;19924;-78
2022/03/27 09:38:11;;;;;;;;;;;;;;;;;;5058009;28;20015;-78
2022/03/27 09:40:36;;;;;;;;;;;;;;;;;;5073325;28;19929;-79
2022/03/27 09:43:10;;;;;;;;;;;;;;;;;;5075317;28;19921;-79
2022/03/27 09:45:35;;;;;;;;;;;;;;;;;;5074407;28;19927;-79
2022/03/27 09:48:07;;;;;;;;;;;;;;;;;;5074594;28;19916;-78
2022/03/27 09:50:36;;;;;;;;;;;;;;;;;;5074306;28;19960;-80
2022/03/27 09:53:22;;;;;;;;;;;;;;;;;;5073497;28;19966;-79
2022/03/27 09:55:56;;;;;;;;;;;;;;;;;;5074288;28;20347;-79
2022/03/27 09:58:37;;;;;;;;;;;;;;;;;;5074379;28;20388;-79
2022/03/27 10:01:16;;;;;;;;;;;;;;;;;;5074180;28;19924;-79
2022/03/27 10:04:01;;;;;;;;;;;;;;;;;;5073787;28;19932;-79
2022/03/27 10:06:34;;;;;;;;;;;;;;;;;;5074063;28;20030;-78
2022/03/27 10:09:03;;;;;;;;;;;;;;;;;;5073905;28;19920;-79
2022/03/27 10:11:29;;;;;;;;;;;;;;;;;;5073952;28;19962;-80
2022/03/27 10:13:54;;;;;;;;;;;;;;;;;;5066868;28;19924;-79
2022/03/27 10:16:24;;;;;;;;;;;;;;;;;;5073759;28;20006;-78
2022/03/27 10:18:53;;;;;;;;;;;;;;;;;;5072730;28;19927;-78
2022/03/27 10:21:21;;;;;;;;;;;;;;;;;;5073796;28;19916;-78
2022/03/27 10:23:48;;;;;;;;;;;;;;;;;;5074881;28;20292;-77
2022/03/27 10:26:14;;;;;;;;;;;;;;;;;;5072792;28;19917;-77
2022/03/27 10:28:39;;;;;;;;;;;;;;;;;;5064851;28;19920;-78
2022/03/27 10:31:06;;;;;;;;;;;;;;;;;;5063151;28;19928;-77
2022/03/27 10:33:33;;;;;;;;;;;;;;;;;;5047407;28;20284;-78
2022/03/27 10:35:58;;;;;;;;;;;;;;;;;;5072728;28;19920;-77
2022/03/27 10:38:28;;;;;;;;;;;;;;;;;;5073465;28;19924;-77
2022/03/27 10:41:13;;;;;;;;;;;;;;;;;;5072353;28;19920;-78
2022/03/27 10:43:47;;;;;;;;;;;;;;;;;;5072644;28;19920;-78
2022/03/27 10:46:13;;;;;;;;;;;;;;;;;;5073373;28;19917;-79
2022/03/27 10:48:42;;;;;;;;;;;;;;;;;;5073046;28;19917;-79
2022/03/27 10:51:08;;;;;;;;;;;;;;;;;;5073010;28;19923;-79
2022/03/27 10:53:33;;;;;;;;;;;;;;;;;;5073240;28;19916;-84
2022/03/27 10:55:59;;;;;;;;;;;;;;;;;;5073316;28;19941;-84
2022/03/27 10:58:26;;;;;;;;;;;;;;;;;;5073288;28;19997;-82
2022/03/27 11:00:52;;;;;;;;;;;;;;;;;;5072225;28;20027;-78
2022/03/27 11:03:36;;;;;;;;;;;;;;;;;;5073352;28;20007;-79
2022/03/27 11:06:03;;;;;;;;;;;;;;;;;;5073058;28;20011;-80
2022/03/27 11:08:32;;;;;;;;;;;;;;;;;;5073238;28;19923;-81
2022/03/27 11:11:00;;;;;;;;;;;;;;;;;;5072874;28;20376;-83
2022/03/27 11:13:25;;;;;;;;;;;;;;;;;;5073047;28;19920;-83
2022/03/27 11:16:01;;;;;;;;;;;;;;;;;;5054212;28;19913;-81
2022/03/27 11:18:34;;;;;;;;;;;;;;;;;;5055145;28;19927;-82
2022/03/27 11:20:59;;;;;;;;;;;;;;;;;;5066198;28;19916;-81
2022/03/27 11:23:25;;;;;;;;;;;;;;;;;;5072912;28;19921;-82
2022/03/27 11:25:51;;;;;;;;;;;;;;;;;;5073072;28;19955;-82
2022/03/27 11:28:17;;;;;;;;;;;;;;;;;;5071521;28;19962;-81
2022/03/27 11:30:51;;;;;;;;;;;;;;;;;;5070444;28;19916;-80
2022/03/27 11:33:24;;;;;;;;;;;;;;;;;;5071364;28;19916;-83
2022/03/27 11:36:05;;;;;;;;;;;;;;;;;;5053367;28;20019;-82
2022/03/27 11:38:49;;;;;;;;;;;;;;;;;;5070546;28;19951;-82
2022/03/27 11:41:28;;;;;;;;;;;;;;;;;;5071263;28;19916;-82
2022/03/27 11:44:16;;;;;;;;;;;;;;;;;;5072475;28;20051;-82
2022/03/27 11:46:43;;;;;;;;;;;;;;;;;;5072581;28;19917;-82
2022/03/27 11:49:08;;;;;;;;;;;;;;;;;;5072926;28;20373;-83
2022/03/27 11:51:34;;;;;;;;;;;;;;;;;;5072635;28;19967;-82
2022/03/27 11:53:59;;;;;;;;;;;;;;;;;;5072730;28;20288;-82
2022/03/27 11:56:25;;;;;;;;;;;;;;;;;;5072684;28;20725;-82
2022/03/27 11:59:07;;;;;;;;;;;;;;;;;;5054647;28;19921;-81
2022/03/27 12:01:32;;;;;;;;;;;;;;;;;;5072359;28;20376;-82
2022/03/27 12:03:58;;;;;;;;;;;;;;;;;;5054549;28;19923;-81
2022/03/27 12:06:28;;;;;;;;;;;;;;;;;;5072561;28;20350;-82
2022/03/27 12:08:53;;;;;;;;;;;;;;;;;;5072273;28;20354;-81
2022/03/27 12:11:26;;;;;;;;;;;;;;;;;;5072559;28;20063;-82
2022/03/27 12:13:52;;;;;;;;;;;;;;;;;;5072444;28;19952;-81
2022/03/27 12:16:22;;;;;;;;;;;;;;;;;;5072506;28;19928;-81
2022/03/27 12:18:48;;;;;;;;;;;;;;;;;;5072483;28;20016;-82
2022/03/27 12:21:14;;;;;;;;;;;;;;;;;;5072417;28;19956;-82
2022/03/27 12:23:40;;;;;;;;;;;;;;;;;;5072253;28;19962;-81
2022/03/27 12:31:50;;;;;;;;;;;;;;;;;;5076201;28;20005;-82
2022/03/27 12:34:16;;;;;;;;;;;;;;;;;;5075732;28;19978;-81
2022/03/27 12:37:08;;;;;;;;;;;;;;;;;;5075828;28;19916;-82
2022/03/27 12:39:34;;;;;;;;;;;;;;;;;;5057874;28;19921;-83
2022/03/27 12:41:59;;;;;;;;;;;;;;;;;;5075799;28;20264;-82
2022/03/27 12:44:25;;;;;;;;;;;;;;;;;;5057750;28;19928;-81
2022/03/27 12:46:50;;;;;;;;;;;;;;;;;;5075722;28;20440;-81
2022/03/27 12:49:16;;;;;;;;;;;;;;;;;;5075620;28;19917;-82
2022/03/27 12:51:41;;;;;;;;;;;;;;;;;;5075452;28;19916;-82
2022/03/27 12:54:08;;;;;;;;;;;;;;;;;;5074725;28;19954;-82
2022/03/27 12:56:34;;;;;;;;;;;;;;;;;;5075516;28;19916;-82
2022/03/27 12:59:17;;;;;;;;;;;;;;;;;;5075569;28;20383;-81
2022/03/27 13:01:42;;;;;;;;;;;;;;;;;;5075220;28;19920;-81
2022/03/27 13:04:08;;;;;;;;;;;;;;;;;;5075521;28;20330;-81
2022/03/27 13:06:42;;;;;;;;;;;;;;;;;;5075287;28;19959;-82
2022/03/27 13:09:08;;;;;;;;;;;;;;;;;;5075099;28;19916;-80
2022/03/27 13:11:44;;;;;;;;;;;;;;;;;;5075104;28;20333;-81
2022/03/27 13:14:10;;;;;;;;;;;;;;;;;;5075054;28;19916;-81
2022/03/27 13:16:41;;;;;;;;;;;;;;;;;;5075264;28;19966;-82
2022/03/27 13:19:07;;;;;;;;;;;;;;;;;;5075353;28;19962;-82
2022/03/27 13:21:40;;;;;;;;;;;;;;;;;;5075811;28;19924;-82
2022/03/27 13:24:12;;;;;;;;;;;;;;;;;;5075922;28;19981;-81
2022/03/27 13:26:39;;;;;;;;;;;;;;;;;;5078848;28;19916;-82
2022/03/27 13:29:05;;;;;;;;;;;;;;;;;;5083270;28;19916;-82
2022/03/27 13:31:31;;;;;;;;;;;;;;;;;;5096717;28;19974;-83
2022/03/27 13:33:57;;;;;;;;;;;;;;;;;;5095787;28;20374;-81
2022/03/27 13:36:22;;;;;;;;;;;;;;;;;;5078444;28;20456;-82
2022/03/27 13:38:48;;;;;;;;;;;;;;;;;;5074468;28;19916;-80
2022/03/27 13:43:58;;;;;;;;;;;;;;;;;;5074970;28;20296;-82
2022/03/27 13:46:24;;;;;;;;;;;;;;;;;;5074667;28;19920;-80
2022/03/27 13:48:49;;;;;;;;;;;;;;;;;;5056769;28;19942;-79
2022/03/27 13:51:15;;;;;;;;;;;;;;;;;;5056440;28;19927;-78
2022/03/27 13:53:40;;;;;;;;;;;;;;;;;;5074574;28;19917;-80
2022/03/27 13:56:07;;;;;;;;;;;;;;;;;;5074321;28;19917;-79
2022/03/27 13:58:32;;;;;;;;;;;;;;;;;;5074251;28;19917;-78
2022/03/27 14:00:58;;;;;;;;;;;;;;;;;;5074000;28;19920;-80
2022/03/27 14:03:24;;;;;;;;;;;;;;;;;;5074106;28;20280;-82
2022/03/27 14:05:52;;;;;;;;;;;;;;;;;;5074165;28;19921;-82
2022/03/27 14:08:18;;;;;;;;;;;;;;;;;;5073975;28;19916;-81
2022/03/27 14:10:43;;;;;;;;;;;;;;;;;;5073939;28;20425;-83
2022/03/27 14:13:09;;;;;;;;;;;;;;;;;;5074025;28;19923;-79
2022/03/27 14:15:34;;;;;;;;;;;;;;;;;;5073797;28;20296;-81
2022/03/27 14:18:02;;;;;;;;;;;;;;;;;;5073865;28;19921;-82
2022/03/27 14:20:28;;;;;;;;;;;;;;;;;;5073889;28;19916;-80
2022/03/27 14:22:53;;;;;;;;;;;;;;;;;;5073717;28;20015;-79
2022/03/27 14:25:19;;;;;;;;;;;;;;;;;;5074021;28;20368;-79
2022/03/27 14:27:46;;;;;;;;;;;;;;;;;;5073595;28;20089;-81
2022/03/27 14:30:14;;;;;;;;;;;;;;;;;;5073621;28;19926;-82
2022/03/27 14:32:41;;;;;;;;;;;;;;;;;;5073655;28;20383;-84
2022/03/27 14:35:07;;;;;;;;;;;;;;;;;;5070514;28;20020;-81
2022/03/27 14:37:33;;;;;;;;;;;;;;;;;;5073390;28;19960;-81
2022/03/27 14:39:59;;;;;;;;;;;;;;;;;;5073539;28;19917;-85
2022/03/27 14:42:25;;;;;;;;;;;;;;;;;;5073407;28;19916;-80
2022/03/27 14:44:51;;;;;;;;;;;;;;;;;;5073396;28;19916;-80
2022/03/27 14:47:17;;;;;;;;;;;;;;;;;;5073288;28;19921;-83
2022/03/27 14:49:42;;;;;;;;;;;;;;;;;;5055336;28;19927;-82
2022/03/27 14:52:08;;;;;;;;;;;;;;;;;;5055314;28;20006;-82
2022/03/27 14:57:18;;;;;;;;;;;;;;;;;;5073318;28;19928;-81
2022/03/27 14:59:43;;;;;;;;;;;;;;;;;;5073130;28;19931;-81
2022/03/27 15:02:09;;;;;;;;;;;;;;;;;;5072987;28;19935;-82
2022/03/27 15:04:34;;;;;;;;;;;;;;;;;;5073142;28;19938;-80
2022/03/27 15:07:00;;;;;;;;;;;;;;;;;;5073202;28;19917;-82
2022/03/27 15:09:25;;;;;;;;;;;;;;;;;;5073040;28;20348;-81
2022/03/27 15:11:51;;;;;;;;;;;;;;;;;;5073110;28;19970;-82
2022/03/27 15:14:16;;;;;;;;;;;;;;;;;;5073016;28;19923;-80
2022/03/27 15:16:42;;;;;;;;;;;;;;;;;;5073022;28;19923;-81
2022/03/27 15:19:07;;;;;;;;;;;;;;;;;;5073121;28;20303;-81
2022/03/27 15:21:33;;;;;;;;;;;;;;;;;;5072956;28;20032;-81
2022/03/27 15:23:59;;;;;;;;;;;;;;;;;;5072834;28;19920;-82
2022/03/27 15:26:24;;;;;;;;;;;;;;;;;;5055095;28;19917;-82
2022/03/27 15:28:50;;;;;;;;;;;;;;;;;;5073009;28;19997;-81
2022/03/27 15:31:19;;;;;;;;;;;;;;;;;;5072870;28;19965;-82
2022/03/27 15:33:44;;;;;;;;;;;;;;;;;;5072857;28;20359;-82
2022/03/27 15:36:10;;;;;;;;;;;;;;;;;;5072884;28;19921;-82
2022/03/27 15:38:36;;;;;;;;;;;;;;;;;;5072915;28;19927;-82
2022/03/27 15:41:01;;;;;;;;;;;;;;;;;;5075028;28;19928;-82
2022/03/27 15:43:26;;;;;;;;;;;;;;;;;;5072232;28;19999;-81
2022/03/27 15:45:52;;;;;;;;;;;;;;;;;;5064444;28;19943;-82
2022/03/27 15:48:17;;;;;;;;;;;;;;;;;;5060826;28;19924;-80
2022/03/27 15:50:49;;;;;;;;;;;;;;;;;;5058657;28;19925;-82
2022/03/27 15:53:14;;;;;;;;;;;;;;;;;;5068746;28;19928;-79
2022/03/27 15:55:40;;;;;;;;;;;;;;;;;;5071592;28;20403;-80
2022/03/27 15:58:05;;;;;;;;;;;;;;;;;;5053586;28;20040;-82
2022/03/27 16:00:31;;;;;;;;;;;;;;;;;;5071497;28;19950;-82
2022/03/27 16:02:56;;;;;;;;;;;;;;;;;;5073067;28;19921;-82
2022/03/27 16:05:22;;;;;;;;;;;;;;;;;;5075466;28;19962;-81
2022/03/27 16:07:47;;;;;;;;;;;;;;;;;;5075231;28;20011;-80
2022/03/27 16:10:13;;;;;;;;;;;;;;;;;;5075362;28;19916;-81
2022/03/27 16:12:38;;;;;;;;;;;;;;;;;;5075265;28;20015;-82
2022/03/27 16:15:05;;;;;;;;;;;;;;;;;;5075238;28;19929;-81
2022/03/27 16:17:31;;;;;;;;;;;;;;;;;;5075184;28;19916;-84
2022/03/27 16:19:56;;;;;;;;;;;;;;;;;;5075217;28;20276;-80
2022/03/27 16:22:22;;;;;;;;;;;;;;;;;;5075674;28;19927;-80
2022/03/27 16:24:47;;;;;;;;;;;;;;;;;;5075172;28;20364;-80
2022/03/27 16:27:16;;;;;;;;;;;;;;;;;;5075096;28;20446;-79
2022/03/27 16:29:41;;;;;;;;;;;;;;;;;;5074996;28;19916;-78
2022/03/27 16:32:07;;;;;;;;;;;;;;;;;;5050292;28;20371;-79
2022/03/27 16:34:32;;;;;;;;;;;;;;;;;;5069844;28;19920;-80
2022/03/27 16:36:58;;;;;;;;;;;;;;;;;;5055510;28;19921;-80
2022/03/27 16:39:24;;;;;;;;;;;;;;;;;;5071901;28;19924;-77
2022/03/27 16:41:49;;;;;;;;;;;;;;;;;;5074553;28;19920;-79
2022/03/27 16:44:15;;;;;;;;;;;;;;;;;;5057299;28;19963;-78
2022/03/27 16:46:41;;;;;;;;;;;;;;;;;;5055600;28;19923;-78
2022/03/27 16:49:06;;;;;;;;;;;;;;;;;;5071300;28;20007;-79
2022/03/27 16:51:31;;;;;;;;;;;;;;;;;;5075596;28;20315;-80
2022/03/27 16:53:57;;;;;;;;;;;;;;;;;;5075435;28;19916;-80
2022/03/27 16:56:23;;;;;;;;;;;;;;;;;;5075439;28;19917;-80
2022/03/27 16:58:51;;;;;;;;;;;;;;;;;;5075624;28;19916;-80
2022/03/27 17:01:20;;;;;;;;;;;;;;;;;;5076542;28;19920;-80
2022/03/27 17:03:48;;;;;;;;;;;;;;;;;;5075173;28;19925;-79